This is the latest recevied weather packets stored in our database for station/object N8HKU-5. If no packets are shown the sender has not sent any weather packets the latest 10 day(s).
| Time | Temp. | Humidity | Pressure | Rain* | Wind** | Luminosity | Snow |
|---|---|---|---|---|---|---|---|
| 1777864353 | 10° C | 73% | 1007.1 hPa | 0 mm | - | - | - |
| 1777863753 | 10° C | 73% | 1007.3 hPa | 0 mm | - | - | - |
| 1777863153 | 9.44° C | 75% | 1007.3 hPa | 0 mm | - | - | - |
| 1777862553 | 9.44° C | 76% | 1007.4 hPa | 0 mm | - | - | - |
| 1777861953 | 9.44° C | 75% | 1007.4 hPa | 0 mm | - | - | - |
| 1777861355 | 9.44° C | 74% | 1007.4 hPa | 0 mm | - | - | - |
| 1777860753 | 10° C | 74% | 1007.4 hPa | 0 mm | - | - | - |
| 1777860153 | 10° C | 73% | 1007.5 hPa | 0 mm | - | - | - |
| 1777859553 | 10° C | 72% | 1007.5 hPa | 0 mm | - | - | - |
| 1777858954 | 10° C | 71% | 1007.3 hPa | 0 mm | - | - | - |
| 1777858353 | 10.56° C | 70% | 1007.4 hPa | 0 mm | - | - | - |
| 1777857755 | 10.56° C | 69% | 1007.4 hPa | 0 mm | - | - | - |
| 1777857153 | 11.11° C | 67% | 1007.4 hPa | 0 mm | - | - | - |
| 1777856554 | 11.11° C | 67% | 1007.4 hPa | 0 mm | - | - | - |
| 1777855953 | 11.67° C | 66% | 1007.5 hPa | 0 mm | - | - | - |
| 1777855353 | 11.67° C | 65% | 1007.6 hPa | 0 mm | - | - | - |
| 1777854753 | 11.67° C | 65% | 1007.8 hPa | 0 mm | - | - | - |
| 1777854153 | 12.22° C | 63% | 1007.8 hPa | 0 mm | - | - | - |
| 1777852353 | 12.78° C | 60% | 1007.7 hPa | 0 mm | - | - | - |
| 1777851753 | 12.78° C | 59% | 1007.7 hPa | 0 mm | - | - | - |
| 1777851154 | 13.33° C | 60% | 1007.9 hPa | 0 mm | - | - | - |
| 1777850554 | 13.89° C | 58% | 1007.8 hPa | 0 mm | - | - | - |
| 1777849953 | 14.44° C | 54% | 1007.7 hPa | 0 mm | - | - | - |
| 1777849354 | 15° C | 50% | 1007.3 hPa | 0 mm | - | - | - |
| 1777848754 | 15.56° C | 47% | 1007.4 hPa | 0 mm | - | - | - |
* Rain latest hour (hover to see other rain measurements)
** Current wind speed in m/s (hover to see current wind gust speed)